sensor_id;sensor_type;location;lat;lon;timestamp;P1;durP1;ratioP1;P2;durP2;ratioP2
5418;SDS011;2732;52.092;11.556;2022-12-07T00:00:27;33.40;;;14.43;;
5418;SDS011;2732;52.092;11.556;2022-12-07T00:05:29;29.90;;;13.53;;
5418;SDS011;2732;52.092;11.556;2022-12-07T00:10:30;31.00;;;13.97;;
5418;SDS011;2732;52.092;11.556;2022-12-07T00:15:34;25.80;;;13.70;;
5418;SDS011;2732;52.092;11.556;2022-12-07T00:20:35;29.03;;;14.80;;
5418;SDS011;2732;52.092;11.556;2022-12-07T00:25:36;27.20;;;13.50;;
5418;SDS011;2732;52.092;11.556;2022-12-07T00:30:37;29.33;;;14.33;;
5418;SDS011;2732;52.092;11.556;2022-12-07T00:35:37;27.47;;;14.80;;
5418;SDS011;2732;52.092;11.556;2022-12-07T00:40:38;30.40;;;15.67;;
5418;SDS011;2732;52.092;11.556;2022-12-07T00:45:38;32.67;;;14.60;;
5418;SDS011;2732;52.092;11.556;2022-12-07T00:50:40;24.67;;;14.07;;
5418;SDS011;2732;52.092;11.556;2022-12-07T00:55:41;24.77;;;14.20;;
5418;SDS011;2732;52.092;11.556;2022-12-07T01:00:43;29.03;;;13.93;;
5418;SDS011;2732;52.092;11.556;2022-12-07T01:05:51;24.23;;;13.13;;
5418;SDS011;2732;52.092;11.556;2022-12-07T01:11:03;24.83;;;13.57;;
5418;SDS011;2732;52.092;11.556;2022-12-07T01:16:07;27.17;;;14.07;;
5418;SDS011;2732;52.092;11.556;2022-12-07T01:21:12;25.20;;;13.70;;
5418;SDS011;2732;52.092;11.556;2022-12-07T01:26:17;28.90;;;14.77;;
5418;SDS011;2732;52.092;11.556;2022-12-07T01:31:22;26.10;;;14.27;;
5418;SDS011;2732;52.092;11.556;2022-12-07T01:36:29;22.03;;;12.30;;
5418;SDS011;2732;52.092;11.556;2022-12-07T01:41:35;25.40;;;13.10;;
5418;SDS011;2732;52.092;11.556;2022-12-07T01:46:44;22.47;;;12.13;;
5418;SDS011;2732;52.092;11.556;2022-12-07T01:52:17;28.20;;;14.03;;
5418;SDS011;2732;52.092;11.556;2022-12-07T01:57:28;27.83;;;13.20;;
5418;SDS011;2732;52.092;11.556;2022-12-07T02:02:33;34.23;;;14.90;;
5418;SDS011;2732;52.092;11.556;2022-12-07T02:07:38;27.10;;;14.40;;
5418;SDS011;2732;52.092;11.556;2022-12-07T02:12:39;27.80;;;15.20;;
5418;SDS011;2732;52.092;11.556;2022-12-07T02:28:35;35.90;;;18.63;;
5418;SDS011;2732;52.092;11.556;2022-12-07T02:34:19;37.37;;;17.30;;
5418;SDS011;2732;52.092;11.556;2022-12-07T02:39:34;38.17;;;18.07;;
5418;SDS011;2732;52.092;11.556;2022-12-07T02:44:55;38.23;;;17.63;;
5418;SDS011;2732;52.092;11.556;2022-12-07T02:49:56;41.50;;;18.17;;
5418;SDS011;2732;52.092;11.556;2022-12-07T02:54:57;43.63;;;18.50;;
5418;SDS011;2732;52.092;11.556;2022-12-07T03:00:03;38.60;;;18.60;;
5418;SDS011;2732;52.092;11.556;2022-12-07T03:05:15;39.83;;;18.53;;
5418;SDS011;2732;52.092;11.556;2022-12-07T03:11:00;38.20;;;18.77;;
5418;SDS011;2732;52.092;11.556;2022-12-07T03:16:20;44.30;;;18.30;;
5418;SDS011;2732;52.092;11.556;2022-12-07T03:22:03;40.50;;;19.73;;
5418;SDS011;2732;52.092;11.556;2022-12-07T03:27:13;41.00;;;17.93;;
5418;SDS011;2732;52.092;11.556;2022-12-07T03:43:19;38.60;;;17.00;;
5418;SDS011;2732;52.092;11.556;2022-12-07T03:59:19;29.67;;;13.37;;
5418;SDS011;2732;52.092;11.556;2022-12-07T04:04:21;33.27;;;17.63;;
5418;SDS011;2732;52.092;11.556;2022-12-07T04:09:23;29.80;;;14.17;;
5418;SDS011;2732;52.092;11.556;2022-12-07T04:14:24;39.73;;;18.70;;
5418;SDS011;2732;52.092;11.556;2022-12-07T04:19:32;46.40;;;22.70;;
5418;SDS011;2732;52.092;11.556;2022-12-07T04:24:34;41.33;;;19.30;;
5418;SDS011;2732;52.092;11.556;2022-12-07T04:29:35;46.20;;;21.17;;
5418;SDS011;2732;52.092;11.556;2022-12-07T04:34:35;44.57;;;22.67;;
5418;SDS011;2732;52.092;11.556;2022-12-07T04:39:36;53.50;;;23.57;;
5418;SDS011;2732;52.092;11.556;2022-12-07T04:44:37;50.60;;;22.20;;
5418;SDS011;2732;52.092;11.556;2022-12-07T04:49:37;42.53;;;23.20;;
5418;SDS011;2732;52.092;11.556;2022-12-07T04:54:38;46.77;;;22.80;;
5418;SDS011;2732;52.092;11.556;2022-12-07T04:59:39;44.63;;;23.40;;
5418;SDS011;2732;52.092;11.556;2022-12-07T05:04:39;44.00;;;23.50;;
5418;SDS011;2732;52.092;11.556;2022-12-07T05:09:40;37.10;;;21.00;;
5418;SDS011;2732;52.092;11.556;2022-12-07T05:14:41;41.23;;;21.87;;
5418;SDS011;2732;52.092;11.556;2022-12-07T05:19:41;36.53;;;19.90;;
5418;SDS011;2732;52.092;11.556;2022-12-07T05:24:42;38.53;;;21.77;;
5418;SDS011;2732;52.092;11.556;2022-12-07T05:29:42;41.13;;;23.17;;
5418;SDS011;2732;52.092;11.556;2022-12-07T05:34:43;45.57;;;22.53;;
5418;SDS011;2732;52.092;11.556;2022-12-07T05:39:44;29.37;;;17.47;;
5418;SDS011;2732;52.092;11.556;2022-12-07T05:44:45;48.03;;;23.03;;
5418;SDS011;2732;52.092;11.556;2022-12-07T05:49:46;47.53;;;23.00;;
5418;SDS011;2732;52.092;11.556;2022-12-07T05:54:47;42.53;;;23.17;;
5418;SDS011;2732;52.092;11.556;2022-12-07T05:59:47;50.10;;;25.20;;
5418;SDS011;2732;52.092;11.556;2022-12-07T06:04:48;46.93;;;23.50;;
5418;SDS011;2732;52.092;11.556;2022-12-07T06:09:49;34.17;;;19.50;;
5418;SDS011;2732;52.092;11.556;2022-12-07T06:14:50;35.63;;;17.63;;
5418;SDS011;2732;52.092;11.556;2022-12-07T06:19:51;35.07;;;19.40;;
5418;SDS011;2732;52.092;11.556;2022-12-07T06:24:51;28.00;;;16.00;;
5418;SDS011;2732;52.092;11.556;2022-12-07T06:29:52;22.27;;;12.87;;
5418;SDS011;2732;52.092;11.556;2022-12-07T06:34:53;28.87;;;16.93;;
5418;SDS011;2732;52.092;11.556;2022-12-07T06:39:53;29.63;;;17.23;;
5418;SDS011;2732;52.092;11.556;2022-12-07T06:44:54;21.30;;;13.00;;
5418;SDS011;2732;52.092;11.556;2022-12-07T06:49:55;26.30;;;13.00;;
5418;SDS011;2732;52.092;11.556;2022-12-07T06:54:55;22.83;;;12.67;;
5418;SDS011;2732;52.092;11.556;2022-12-07T06:59:56;18.93;;;12.73;;
5418;SDS011;2732;52.092;11.556;2022-12-07T07:04:56;17.10;;;11.00;;
5418;SDS011;2732;52.092;11.556;2022-12-07T07:09:57;15.13;;;9.53;;
5418;SDS011;2732;52.092;11.556;2022-12-07T07:14:58;15.20;;;10.10;;
5418;SDS011;2732;52.092;11.556;2022-12-07T07:19:58;12.73;;;8.00;;
5418;SDS011;2732;52.092;11.556;2022-12-07T07:24:59;14.80;;;8.43;;
5418;SDS011;2732;52.092;11.556;2022-12-07T07:30:00;14.07;;;8.40;;
5418;SDS011;2732;52.092;11.556;2022-12-07T07:35:00;15.60;;;9.30;;
5418;SDS011;2732;52.092;11.556;2022-12-07T07:40:01;15.77;;;9.77;;
5418;SDS011;2732;52.092;11.556;2022-12-07T07:45:02;16.20;;;10.00;;
5418;SDS011;2732;52.092;11.556;2022-12-07T07:50:04;16.90;;;11.47;;
5418;SDS011;2732;52.092;11.556;2022-12-07T07:55:06;17.50;;;9.20;;
5418;SDS011;2732;52.092;11.556;2022-12-07T08:00:13;19.83;;;10.13;;
5418;SDS011;2732;52.092;11.556;2022-12-07T08:05:15;12.90;;;9.10;;
5418;SDS011;2732;52.092;11.556;2022-12-07T08:10:16;17.73;;;11.80;;
5418;SDS011;2732;52.092;11.556;2022-12-07T08:15:16;18.20;;;11.23;;
5418;SDS011;2732;52.092;11.556;2022-12-07T08:20:17;20.23;;;12.37;;
5418;SDS011;2732;52.092;11.556;2022-12-07T08:25:18;23.43;;;12.50;;
5418;SDS011;2732;52.092;11.556;2022-12-07T08:30:19;19.23;;;11.50;;
5418;SDS011;2732;52.092;11.556;2022-12-07T08:35:20;15.40;;;7.40;;
5418;SDS011;2732;52.092;11.556;2022-12-07T08:40:21;9.10;;;5.83;;
5418;SDS011;2732;52.092;11.556;2022-12-07T08:45:22;5.07;;;3.80;;
5418;SDS011;2732;52.092;11.556;2022-12-07T08:50:23;3.87;;;3.57;;
5418;SDS011;2732;52.092;11.556;2022-12-07T08:55:25;4.43;;;3.93;;
5418;SDS011;2732;52.092;11.556;2022-12-07T09:00:27;3.10;;;2.90;;
5418;SDS011;2732;52.092;11.556;2022-12-07T09:05:28;13.37;;;3.33;;
5418;SDS011;2732;52.092;11.556;2022-12-07T09:10:29;9.83;;;3.17;;
5418;SDS011;2732;52.092;11.556;2022-12-07T09:15:30;3.40;;;2.80;;
5418;SDS011;2732;52.092;11.556;2022-12-07T09:20:31;2.83;;;2.17;;
5418;SDS011;2732;52.092;11.556;2022-12-07T09:25:32;2.07;;;1.97;;
5418;SDS011;2732;52.092;11.556;2022-12-07T09:30:34;2.43;;;2.07;;
5418;SDS011;2732;52.092;11.556;2022-12-07T09:35:36;2.23;;;2.03;;
5418;SDS011;2732;52.092;11.556;2022-12-07T09:40:37;6.47;;;3.20;;
5418;SDS011;2732;52.092;11.556;2022-12-07T09:45:37;4.27;;;3.87;;
5418;SDS011;2732;52.092;11.556;2022-12-07T09:50:39;8.50;;;6.43;;
5418;SDS011;2732;52.092;11.556;2022-12-07T09:55:40;12.10;;;5.67;;
5418;SDS011;2732;52.092;11.556;2022-12-07T10:00:43;8.87;;;7.97;;
5418;SDS011;2732;52.092;11.556;2022-12-07T10:05:45;7.43;;;5.37;;
5418;SDS011;2732;52.092;11.556;2022-12-07T10:10:50;14.50;;;8.40;;
5418;SDS011;2732;52.092;11.556;2022-12-07T10:15:58;10.80;;;7.57;;
5418;SDS011;2732;52.092;11.556;2022-12-07T10:21:03;8.60;;;7.07;;
5418;SDS011;2732;52.092;11.556;2022-12-07T10:26:27;12.07;;;7.77;;
5418;SDS011;2732;52.092;11.556;2022-12-07T10:31:36;13.17;;;6.80;;
5418;SDS011;2732;52.092;11.556;2022-12-07T10:36:39;5.40;;;4.90;;
5418;SDS011;2732;52.092;11.556;2022-12-07T10:41:59;3.67;;;3.00;;
5418;SDS011;2732;52.092;11.556;2022-12-07T10:52:26;13.90;;;7.70;;
5418;SDS011;2732;52.092;11.556;2022-12-07T11:25:30;12.73;;;6.70;;
5418;SDS011;2732;52.092;11.556;2022-12-07T11:36:30;6.60;;;4.50;;
5418;SDS011;2732;52.092;11.556;2022-12-07T11:41:39;11.83;;;5.70;;
5418;SDS011;2732;52.092;11.556;2022-12-07T11:46:44;12.10;;;5.03;;
5418;SDS011;2732;52.092;11.556;2022-12-07T11:51:54;4.40;;;4.00;;
5418;SDS011;2732;52.092;11.556;2022-12-07T11:57:01;10.27;;;5.40;;
5418;SDS011;2732;52.092;11.556;2022-12-07T12:02:18;14.47;;;5.13;;
5418;SDS011;2732;52.092;11.556;2022-12-07T12:07:26;5.43;;;4.70;;
5418;SDS011;2732;52.092;11.556;2022-12-07T12:17:56;4.73;;;3.93;;
5418;SDS011;2732;52.092;11.556;2022-12-07T12:23:41;10.83;;;5.57;;
5418;SDS011;2732;52.092;11.556;2022-12-07T12:34:02;6.90;;;4.40;;
5418;SDS011;2732;52.092;11.556;2022-12-07T12:39:12;4.00;;;3.23;;
5418;SDS011;2732;52.092;11.556;2022-12-07T12:54:21;8.70;;;4.40;;
5418;SDS011;2732;52.092;11.556;2022-12-07T13:04:39;6.40;;;4.53;;
5418;SDS011;2732;52.092;11.556;2022-12-07T13:10:18;16.27;;;3.77;;
5418;SDS011;2732;52.092;11.556;2022-12-07T13:15:37;12.20;;;2.80;;
5418;SDS011;2732;52.092;11.556;2022-12-07T13:20:55;2.20;;;2.10;;
5418;SDS011;2732;52.092;11.556;2022-12-07T13:36:43;6.33;;;2.77;;
5418;SDS011;2732;52.092;11.556;2022-12-07T13:41:48;4.43;;;3.43;;
5418;SDS011;2732;52.092;11.556;2022-12-07T13:47:06;7.50;;;3.33;;
5418;SDS011;2732;52.092;11.556;2022-12-07T13:52:23;2.80;;;2.60;;
5418;SDS011;2732;52.092;11.556;2022-12-07T13:57:27;4.63;;;1.90;;
5418;SDS011;2732;52.092;11.556;2022-12-07T14:02:34;3.67;;;2.27;;
5418;SDS011;2732;52.092;11.556;2022-12-07T14:07:35;5.80;;;1.43;;
5418;SDS011;2732;52.092;11.556;2022-12-07T14:12:58;4.60;;;1.33;;
5418;SDS011;2732;52.092;11.556;2022-12-07T14:18:02;1.10;;;1.00;;
5418;SDS011;2732;52.092;11.556;2022-12-07T14:23:04;3.67;;;1.73;;
5418;SDS011;2732;52.092;11.556;2022-12-07T14:28:29;4.57;;;1.87;;
5418;SDS011;2732;52.092;11.556;2022-12-07T14:33:32;3.17;;;2.03;;
5418;SDS011;2732;52.092;11.556;2022-12-07T14:38:33;5.13;;;1.20;;
5418;SDS011;2732;52.092;11.556;2022-12-07T14:43:34;2.40;;;1.67;;
5418;SDS011;2732;52.092;11.556;2022-12-07T14:48:34;5.37;;;2.03;;
5418;SDS011;2732;52.092;11.556;2022-12-07T14:53:36;2.77;;;1.43;;
5418;SDS011;2732;52.092;11.556;2022-12-07T14:58:41;5.73;;;2.00;;
5418;SDS011;2732;52.092;11.556;2022-12-07T15:03:42;4.23;;;1.70;;
5418;SDS011;2732;52.092;11.556;2022-12-07T15:08:43;2.20;;;1.67;;
5418;SDS011;2732;52.092;11.556;2022-12-07T15:13:44;9.00;;;2.30;;
5418;SDS011;2732;52.092;11.556;2022-12-07T15:19:03;2.03;;;1.90;;
5418;SDS011;2732;52.092;11.556;2022-12-07T15:24:04;4.10;;;3.37;;
5418;SDS011;2732;52.092;11.556;2022-12-07T15:29:05;7.40;;;4.20;;
5418;SDS011;2732;52.092;11.556;2022-12-07T15:34:07;3.47;;;3.07;;
5418;SDS011;2732;52.092;11.556;2022-12-07T15:39:08;6.17;;;3.53;;
5418;SDS011;2732;52.092;11.556;2022-12-07T15:44:11;4.90;;;3.67;;
5418;SDS011;2732;52.092;11.556;2022-12-07T15:49:31;5.03;;;3.80;;
5418;SDS011;2732;52.092;11.556;2022-12-07T15:54:32;12.50;;;4.30;;
5418;SDS011;2732;52.092;11.556;2022-12-07T15:59:33;4.53;;;3.40;;
5418;SDS011;2732;52.092;11.556;2022-12-07T16:04:34;2.87;;;2.63;;
5418;SDS011;2732;52.092;11.556;2022-12-07T16:09:34;2.77;;;2.53;;
5418;SDS011;2732;52.092;11.556;2022-12-07T16:14:35;1.47;;;0.93;;
5418;SDS011;2732;52.092;11.556;2022-12-07T16:19:36;6.30;;;1.30;;
5418;SDS011;2732;52.092;11.556;2022-12-07T16:24:38;1.00;;;1.00;;
5418;SDS011;2732;52.092;11.556;2022-12-07T16:29:38;6.40;;;1.03;;
5418;SDS011;2732;52.092;11.556;2022-12-07T16:34:39;6.20;;;1.20;;
5418;SDS011;2732;52.092;11.556;2022-12-07T16:39:40;0.40;;;0.40;;
5418;SDS011;2732;52.092;11.556;2022-12-07T16:44:40;4.77;;;1.27;;
5418;SDS011;2732;52.092;11.556;2022-12-07T16:49:42;4.80;;;0.77;;
5418;SDS011;2732;52.092;11.556;2022-12-07T16:54:43;7.17;;;0.90;;
5418;SDS011;2732;52.092;11.556;2022-12-07T16:59:44;8.97;;;4.63;;
5418;SDS011;2732;52.092;11.556;2022-12-07T17:04:45;3.70;;;1.23;;
5418;SDS011;2732;52.092;11.556;2022-12-07T17:09:45;0.70;;;0.70;;
5418;SDS011;2732;52.092;11.556;2022-12-07T17:14:46;1.33;;;0.90;;
5418;SDS011;2732;52.092;11.556;2022-12-07T17:20:05;2.10;;;0.57;;
5418;SDS011;2732;52.092;11.556;2022-12-07T17:25:07;0.50;;;0.50;;
5418;SDS011;2732;52.092;11.556;2022-12-07T17:30:08;4.07;;;0.83;;
5418;SDS011;2732;52.092;11.556;2022-12-07T17:35:10;8.83;;;0.60;;
5418;SDS011;2732;52.092;11.556;2022-12-07T17:40:11;1.20;;;0.40;;
5418;SDS011;2732;52.092;11.556;2022-12-07T17:45:14;1.13;;;0.60;;
5418;SDS011;2732;52.092;11.556;2022-12-07T17:50:14;4.00;;;0.90;;
5418;SDS011;2732;52.092;11.556;2022-12-07T17:55:15;2.20;;;1.07;;
5418;SDS011;2732;52.092;11.556;2022-12-07T18:00:17;1.53;;;0.77;;
5418;SDS011;2732;52.092;11.556;2022-12-07T18:05:18;3.47;;;0.60;;
5418;SDS011;2732;52.092;11.556;2022-12-07T18:10:19;2.53;;;0.90;;
5418;SDS011;2732;52.092;11.556;2022-12-07T18:15:19;3.73;;;1.80;;
5418;SDS011;2732;52.092;11.556;2022-12-07T18:20:20;7.03;;;6.17;;
5418;SDS011;2732;52.092;11.556;2022-12-07T18:25:21;3.10;;;1.87;;
5418;SDS011;2732;52.092;11.556;2022-12-07T18:30:21;1.30;;;1.20;;
5418;SDS011;2732;52.092;11.556;2022-12-07T18:35:22;4.53;;;1.30;;
5418;SDS011;2732;52.092;11.556;2022-12-07T18:40:24;2.80;;;2.40;;
5418;SDS011;2732;52.092;11.556;2022-12-07T18:45:25;2.80;;;2.50;;
5418;SDS011;2732;52.092;11.556;2022-12-07T18:50:26;4.00;;;2.37;;
5418;SDS011;2732;52.092;11.556;2022-12-07T18:55:27;3.53;;;3.23;;
5418;SDS011;2732;52.092;11.556;2022-12-07T19:00:29;11.03;;;3.20;;
5418;SDS011;2732;52.092;11.556;2022-12-07T19:05:32;5.00;;;3.80;;
5418;SDS011;2732;52.092;11.556;2022-12-07T19:10:33;8.30;;;4.97;;
5418;SDS011;2732;52.092;11.556;2022-12-07T19:15:34;8.93;;;4.37;;
5418;SDS011;2732;52.092;11.556;2022-12-07T19:20:35;11.17;;;5.37;;
5418;SDS011;2732;52.092;11.556;2022-12-07T19:25:35;5.60;;;5.00;;
5418;SDS011;2732;52.092;11.556;2022-12-07T19:30:36;5.23;;;4.80;;
5418;SDS011;2732;52.092;11.556;2022-12-07T19:35:37;17.97;;;6.90;;
5418;SDS011;2732;52.092;11.556;2022-12-07T19:40:37;5.87;;;4.60;;
5418;SDS011;2732;52.092;11.556;2022-12-07T19:45:38;7.60;;;5.60;;
5418;SDS011;2732;52.092;11.556;2022-12-07T19:50:39;17.43;;;6.50;;
5418;SDS011;2732;52.092;11.556;2022-12-07T19:55:39;7.83;;;5.80;;
5418;SDS011;2732;52.092;11.556;2022-12-07T20:00:42;14.30;;;6.07;;
5418;SDS011;2732;52.092;11.556;2022-12-07T20:05:42;7.20;;;4.23;;
5418;SDS011;2732;52.092;11.556;2022-12-07T20:10:43;6.53;;;5.13;;
5418;SDS011;2732;52.092;11.556;2022-12-07T20:15:44;4.03;;;3.73;;
5418;SDS011;2732;52.092;11.556;2022-12-07T20:20:57;4.37;;;3.53;;
5418;SDS011;2732;52.092;11.556;2022-12-07T20:26:05;6.33;;;3.10;;
5418;SDS011;2732;52.092;11.556;2022-12-07T20:31:09;5.47;;;3.50;;
5418;SDS011;2732;52.092;11.556;2022-12-07T20:36:15;4.10;;;3.80;;
5418;SDS011;2732;52.092;11.556;2022-12-07T20:41:17;12.30;;;3.97;;
5418;SDS011;2732;52.092;11.556;2022-12-07T20:46:37;6.23;;;3.07;;
5418;SDS011;2732;52.092;11.556;2022-12-07T20:51:38;5.47;;;3.00;;
5418;SDS011;2732;52.092;11.556;2022-12-07T20:56:39;4.43;;;3.20;;
5418;SDS011;2732;52.092;11.556;2022-12-07T21:01:40;2.67;;;2.47;;
5418;SDS011;2732;52.092;11.556;2022-12-07T21:06:42;4.70;;;2.73;;
5418;SDS011;2732;52.092;11.556;2022-12-07T21:11:42;2.83;;;2.00;;
5418;SDS011;2732;52.092;11.556;2022-12-07T21:16:43;1.90;;;1.80;;
5418;SDS011;2732;52.092;11.556;2022-12-07T21:21:44;2.07;;;1.97;;
5418;SDS011;2732;52.092;11.556;2022-12-07T21:26:44;2.80;;;2.70;;
5418;SDS011;2732;52.092;11.556;2022-12-07T21:31:45;3.90;;;3.43;;
5418;SDS011;2732;52.092;11.556;2022-12-07T21:36:46;3.70;;;3.40;;
5418;SDS011;2732;52.092;11.556;2022-12-07T21:41:46;6.80;;;3.60;;
5418;SDS011;2732;52.092;11.556;2022-12-07T21:46:47;5.33;;;3.53;;
5418;SDS011;2732;52.092;11.556;2022-12-07T21:51:47;6.60;;;4.47;;
5418;SDS011;2732;52.092;11.556;2022-12-07T21:56:48;7.53;;;5.57;;
5418;SDS011;2732;52.092;11.556;2022-12-07T22:01:49;8.97;;;5.87;;
5418;SDS011;2732;52.092;11.556;2022-12-07T22:06:51;9.47;;;5.63;;
5418;SDS011;2732;52.092;11.556;2022-12-07T22:11:52;9.53;;;6.20;;
5418;SDS011;2732;52.092;11.556;2022-12-07T22:16:53;8.07;;;6.07;;
5418;SDS011;2732;52.092;11.556;2022-12-07T22:21:53;10.13;;;6.30;;
5418;SDS011;2732;52.092;11.556;2022-12-07T22:26:54;9.77;;;6.10;;
5418;SDS011;2732;52.092;11.556;2022-12-07T22:31:55;11.40;;;7.37;;
5418;SDS011;2732;52.092;11.556;2022-12-07T22:36:55;7.20;;;4.77;;
5418;SDS011;2732;52.092;11.556;2022-12-07T22:41:56;8.63;;;5.57;;
5418;SDS011;2732;52.092;11.556;2022-12-07T22:46:56;13.50;;;5.77;;
5418;SDS011;2732;52.092;11.556;2022-12-07T22:51:57;13.97;;;5.00;;
5418;SDS011;2732;52.092;11.556;2022-12-07T22:56:58;8.60;;;5.80;;
5418;SDS011;2732;52.092;11.556;2022-12-07T23:01:58;10.43;;;5.97;;
5418;SDS011;2732;52.092;11.556;2022-12-07T23:06:59;9.60;;;5.90;;
5418;SDS011;2732;52.092;11.556;2022-12-07T23:12:00;8.07;;;4.70;;
5418;SDS011;2732;52.092;11.556;2022-12-07T23:17:19;10.00;;;5.23;;
5418;SDS011;2732;52.092;11.556;2022-12-07T23:22:20;10.47;;;4.90;;
5418;SDS011;2732;52.092;11.556;2022-12-07T23:27:20;12.90;;;6.77;;
5418;SDS011;2732;52.092;11.556;2022-12-07T23:32:21;11.30;;;6.70;;
5418;SDS011;2732;52.092;11.556;2022-12-07T23:37:22;10.47;;;6.07;;
5418;SDS011;2732;52.092;11.556;2022-12-07T23:42:22;11.63;;;6.70;;
5418;SDS011;2732;52.092;11.556;2022-12-07T23:47:23;10.53;;;6.80;;
5418;SDS011;2732;52.092;11.556;2022-12-07T23:52:24;12.20;;;6.10;;
5418;SDS011;2732;52.092;11.556;2022-12-07T23:57:24;9.17;;;6.40;;
